createdAt,value
2023-01-31T00:01:38.636Z,14.63
2023-01-31T00:04:09.106Z,15.32
2023-01-31T00:06:44.969Z,11.38
2023-01-31T00:09:13.130Z,18.17
2023-01-31T00:11:40.238Z,15.73
2023-01-31T00:14:08.251Z,12.88
2023-01-31T00:16:35.334Z,12.45
2023-01-31T00:19:02.859Z,17.52
2023-01-31T00:21:31.251Z,11.23
2023-01-31T00:23:58.754Z,15.68
2023-01-31T00:26:27.600Z,13.32
2023-01-31T00:28:56.615Z,15.13
2023-01-31T00:31:25.675Z,12.82
2023-01-31T00:33:54.404Z,14.13
2023-01-31T00:36:25.233Z,18.08
2023-01-31T00:38:54.231Z,15.68
2023-01-31T00:41:23.285Z,14.98
2023-01-31T00:43:50.785Z,10.57
2023-01-31T00:46:18.349Z,18.52
2023-01-31T00:48:45.195Z,13.88
2023-01-31T00:51:12.451Z,15.82
2023-01-31T00:53:39.407Z,14.25
2023-01-31T00:56:14.936Z,12.20
2023-01-31T00:58:42.743Z,11.27
2023-01-31T01:01:14.134Z,17.10
2023-01-31T01:03:42.633Z,12.93
2023-01-31T01:06:11.163Z,14.70
2023-01-31T01:08:40.601Z,12.50
2023-01-31T01:11:12.012Z,16.60
2023-01-31T01:13:39.587Z,19.52
2023-01-31T01:16:12.414Z,14.45
2023-01-31T01:18:39.537Z,12.20
2023-01-31T01:21:15.088Z,12.73
2023-01-31T01:23:42.832Z,14.57
2023-01-31T01:26:20.825Z,13.95
2023-01-31T01:28:50.018Z,17.10
2023-01-31T01:31:19.336Z,13.80
2023-01-31T01:33:47.668Z,17.92
2023-01-31T01:36:17.418Z,14.85
2023-01-31T01:38:45.794Z,16.05
2023-01-31T01:41:14.077Z,12.48
2023-01-31T01:43:41.030Z,15.15
2023-01-31T01:46:10.366Z,17.70
2023-01-31T01:48:37.755Z,16.27
2023-01-31T01:51:06.843Z,11.77
2023-01-31T01:53:36.873Z,19.90
2023-01-31T01:56:09.946Z,17.77
2023-01-31T01:58:46.932Z,13.88
2023-01-31T02:01:16.834Z,20.50
2023-01-31T02:03:49.324Z,15.95
2023-01-31T02:06:16.512Z,14.50
2023-01-31T02:08:44.011Z,15.98
2023-01-31T02:11:24.255Z,18.20
2023-01-31T02:14:00.718Z,11.70
2023-01-31T02:16:28.095Z,16.17
2023-01-31T02:18:56.403Z,14.85
2023-01-31T02:21:42.290Z,14.02
2023-01-31T02:24:23.639Z,15.75
2023-01-31T02:26:56.509Z,18.73
2023-01-31T02:29:37.758Z,22.27
2023-01-31T02:32:50.006Z,14.05
2023-01-31T02:35:47.060Z,13.93
2023-01-31T02:38:34.334Z,15.40
2023-01-31T02:41:14.356Z,17.83
2023-01-31T02:44:12.777Z,12.88
2023-01-31T02:46:48.161Z,16.60
2023-01-31T02:49:36.891Z,20.35
2023-01-31T02:52:40.266Z,21.00
2023-01-31T02:55:44.778Z,18.50
2023-01-31T02:58:16.134Z,15.77
2023-01-31T03:00:46.036Z,15.68
2023-01-31T03:03:35.240Z,16.05
2023-01-31T03:06:11.992Z,15.23
2023-01-31T03:08:43.694Z,14.52
2023-01-31T03:11:11.669Z,15.75
2023-01-31T03:14:10.522Z,10.05
2023-01-31T03:17:08.189Z,15.07
2023-01-31T03:20:00.426Z,15.68
2023-01-31T03:22:41.137Z,14.40
2023-01-31T03:25:10.634Z,11.70
2023-01-31T03:27:40.359Z,14.90
2023-01-31T03:30:15.388Z,14.63
2023-01-31T03:32:50.699Z,12.60
2023-01-31T03:35:24.021Z,15.73
2023-01-31T03:37:58.669Z,12.52
2023-01-31T03:40:39.004Z,13.05
2023-01-31T03:43:31.848Z,11.13
2023-01-31T03:46:06.463Z,15.60
2023-01-31T03:48:37.842Z,12.20
2023-01-31T03:51:09.405Z,11.77
2023-01-31T03:53:43.750Z,13.07
2023-01-31T03:56:34.488Z,10.68
2023-01-31T03:59:11.126Z,18.15
2023-01-31T04:01:43.057Z,14.93
2023-01-31T04:04:14.973Z,17.63
2023-01-31T04:06:42.876Z,12.25
2023-01-31T04:09:10.351Z,9.50
2023-01-31T04:11:41.876Z,15.25
2023-01-31T04:14:10.261Z,16.25
2023-01-31T04:16:37.111Z,13.07
2023-01-31T04:19:04.026Z,14.13
2023-01-31T04:21:30.808Z,12.73
2023-01-31T04:23:57.665Z,13.43
2023-01-31T04:26:24.741Z,16.08
2023-01-31T04:28:52.178Z,14.10
2023-01-31T04:31:19.095Z,10.48
2023-01-31T04:33:46.018Z,13.23
2023-01-31T04:36:13.129Z,16.90
2023-01-31T04:38:39.950Z,12.35
2023-01-31T04:41:06.767Z,14.57
2023-01-31T04:43:33.733Z,13.68
2023-01-31T04:46:00.775Z,14.32
2023-01-31T04:48:29.080Z,13.30
2023-01-31T04:50:56.801Z,11.90
2023-01-31T04:53:23.928Z,14.20
2023-01-31T04:55:54.247Z,11.77
2023-01-31T04:58:21.447Z,16.55
2023-01-31T05:00:48.391Z,12.82
2023-01-31T05:03:15.323Z,12.35
2023-01-31T05:05:42.226Z,11.38
2023-01-31T05:08:09.091Z,10.27
2023-01-31T05:10:36.461Z,14.38
2023-01-31T05:13:03.475Z,11.15
2023-01-31T05:15:30.472Z,8.63
2023-01-31T05:18:03.213Z,12.35
2023-01-31T05:20:32.629Z,16.70
2023-01-31T05:22:59.959Z,9.75
2023-01-31T05:25:27.125Z,13.52
2023-01-31T05:27:54.192Z,13.45
2023-01-31T05:30:24.154Z,13.02
2023-01-31T05:32:51.442Z,9.98
2023-01-31T05:35:18.946Z,11.85
2023-01-31T05:37:46.363Z,14.93
2023-01-31T05:40:15.673Z,9.38
2023-01-31T05:42:42.643Z,8.77
2023-01-31T05:45:12.921Z,10.85
2023-01-31T05:47:40.013Z,16.13
2023-01-31T05:50:07.277Z,15.45
2023-01-31T05:52:34.175Z,13.68
2023-01-31T05:55:01.718Z,11.82
2023-01-31T05:57:28.610Z,15.52
2023-01-31T05:59:55.716Z,10.88
2023-01-31T06:02:22.800Z,8.77
2023-01-31T06:04:50.115Z,10.40
2023-01-31T06:07:16.988Z,15.48
2023-01-31T06:09:44.115Z,12.07
2023-01-31T06:12:14.697Z,13.93
2023-01-31T06:14:41.839Z,8.98
2023-01-31T06:17:08.799Z,15.70
2023-01-31T06:19:35.631Z,12.20
2023-01-31T06:22:02.490Z,13.23
2023-01-31T06:24:29.502Z,11.25
2023-01-31T06:26:56.840Z,11.25
2023-01-31T06:29:23.996Z,14.77
2023-01-31T06:31:50.864Z,14.68
2023-01-31T06:34:17.808Z,13.85
2023-01-31T06:36:44.847Z,20.20
2023-01-31T06:39:13.916Z,15.73
2023-01-31T06:41:41.070Z,12.73
2023-01-31T06:44:07.953Z,15.77
2023-01-31T06:46:35.424Z,11.55
2023-01-31T06:49:02.377Z,11.52
2023-01-31T06:51:29.242Z,12.52
2023-01-31T06:53:57.001Z,13.48
2023-01-31T06:56:24.031Z,15.27
2023-01-31T06:58:51.155Z,10.75
2023-01-31T07:01:18.162Z,11.88
2023-01-31T07:03:45.476Z,13.30
2023-01-31T07:06:13.763Z,13.05
2023-01-31T07:08:40.835Z,11.90
2023-01-31T07:11:07.849Z,17.02
2023-01-31T07:13:34.843Z,10.75
2023-01-31T07:16:01.771Z,13.77
2023-01-31T07:18:29.167Z,11.85
2023-01-31T07:20:56.290Z,10.25
2023-01-31T07:23:23.185Z,13.30
2023-01-31T07:25:50.054Z,11.57
2023-01-31T07:28:17.086Z,14.65
2023-01-31T07:30:44.100Z,11.93
2023-01-31T07:33:11.729Z,10.48
2023-01-31T07:35:38.640Z,12.10
2023-01-31T07:38:06.010Z,12.38
2023-01-31T07:40:34.780Z,12.77
2023-01-31T07:43:02.384Z,12.40
2023-01-31T07:45:29.820Z,10.93
2023-01-31T07:48:00.901Z,12.85
2023-01-31T07:50:27.982Z,7.95
2023-01-31T07:52:56.984Z,9.95
2023-01-31T07:55:23.991Z,11.65
2023-01-31T07:57:51.110Z,10.38
2023-01-31T08:00:37.509Z,11.10
2023-01-31T08:03:23.897Z,8.52
2023-01-31T08:05:50.923Z,5.95
2023-01-31T08:08:17.787Z,14.75
2023-01-31T08:10:47.367Z,8.77
2023-01-31T08:13:14.361Z,9.77
2023-01-31T08:15:41.313Z,8.23
2023-01-31T08:18:08.274Z,8.13
2023-01-31T08:20:37.711Z,7.03
2023-01-31T08:23:04.681Z,8.18
2023-01-31T08:25:32.178Z,10.15
2023-01-31T08:27:59.892Z,7.35
2023-01-31T08:30:27.972Z,7.97
2023-01-31T08:32:55.708Z,6.95
2023-01-31T08:35:23.142Z,8.23
2023-01-31T08:37:50.041Z,10.18
2023-01-31T08:40:17.567Z,7.20
2023-01-31T08:42:44.546Z,6.60
2023-01-31T08:45:11.483Z,9.02
2023-01-31T08:47:38.957Z,8.00
2023-01-31T08:50:15.827Z,6.72
2023-01-31T08:53:00.373Z,7.60
2023-01-31T08:55:29.252Z,11.32
2023-01-31T08:58:00.045Z,8.07
2023-01-31T09:00:27.463Z,10.00
2023-01-31T09:02:56.140Z,9.80
2023-01-31T09:05:25.264Z,10.18
2023-01-31T09:07:52.503Z,9.93
2023-01-31T09:10:20.397Z,11.20
2023-01-31T09:12:47.883Z,5.70
2023-01-31T09:15:15.142Z,6.93
2023-01-31T09:17:43.586Z,8.93
2023-01-31T09:23:31.846Z,10.63
2023-01-31T09:25:59.136Z,12.13
2023-01-31T09:28:26.543Z,11.57
2023-01-31T09:30:53.742Z,10.20
2023-01-31T09:33:21.872Z,11.85
2023-01-31T09:35:59.995Z,5.75
2023-01-31T09:38:27.168Z,7.57
2023-01-31T09:40:55.903Z,11.07
2023-01-31T09:43:28.607Z,9.07
2023-01-31T09:46:00.215Z,6.20
2023-01-31T09:48:31.977Z,9.60
2023-01-31T09:50:59.934Z,9.95
2023-01-31T09:53:32.850Z,6.25
2023-01-31T09:56:08.804Z,5.68
2023-01-31T09:59:04.818Z,8.80
2023-01-31T10:01:39.126Z,8.13
2023-01-31T10:04:28.183Z,6.03
2023-01-31T10:07:00.194Z,7.72
2023-01-31T10:09:54.941Z,6.43
2023-01-31T10:12:40.395Z,4.00
2023-01-31T10:15:15.723Z,9.80
2023-01-31T10:17:58.275Z,7.45
2023-01-31T10:20:47.936Z,8.20
2023-01-31T10:23:18.350Z,6.45
2023-01-31T10:25:51.361Z,6.47
2023-01-31T10:28:24.243Z,7.60
2023-01-31T10:30:51.255Z,5.63
2023-01-31T10:33:30.380Z,7.90
2023-01-31T10:36:02.201Z,6.68
2023-01-31T10:38:45.268Z,8.73
2023-01-31T10:41:21.827Z,6.45
2023-01-31T10:44:01.948Z,10.45
2023-01-31T10:46:28.948Z,7.57
2023-01-31T10:48:56.024Z,12.52
2023-01-31T10:51:53.452Z,10.68
2023-01-31T10:54:25.983Z,8.00
2023-01-31T10:56:53.447Z,7.38
2023-01-31T10:59:33.788Z,7.15
2023-01-31T11:02:03.017Z,13.95
2023-01-31T11:04:32.612Z,8.00
2023-01-31T11:07:01.621Z,7.38
2023-01-31T11:09:33.156Z,8.38
2023-01-31T11:12:02.596Z,7.65
2023-01-31T11:14:32.875Z,7.35
2023-01-31T11:17:05.402Z,6.93
2023-01-31T11:19:44.459Z,9.38
2023-01-31T11:22:31.715Z,6.50
2023-01-31T11:25:01.782Z,7.53
2023-01-31T11:27:43.169Z,4.85
2023-01-31T11:30:22.280Z,9.18
2023-01-31T11:32:49.888Z,6.47
2023-01-31T11:35:19.486Z,7.55
2023-01-31T11:38:00.884Z,8.05
2023-01-31T11:40:39.179Z,7.80
2023-01-31T11:43:16.635Z,6.18
2023-01-31T11:45:46.148Z,5.88
2023-01-31T11:48:13.302Z,5.20
2023-01-31T11:50:52.376Z,6.97
2023-01-31T11:53:26.868Z,6.38
2023-01-31T11:55:57.481Z,4.10
2023-01-31T11:58:34.575Z,4.90
2023-01-31T12:01:23.211Z,4.35
2023-01-31T12:04:04.631Z,4.43
2023-01-31T12:06:37.669Z,4.75
2023-01-31T12:09:18.683Z,6.70
2023-01-31T12:11:59.899Z,4.30
2023-01-31T12:14:39.797Z,6.20
2023-01-31T12:17:12.506Z,4.53
2023-01-31T12:19:46.008Z,5.38
2023-01-31T12:22:23.669Z,6.38
2023-01-31T12:24:59.203Z,7.70
2023-01-31T12:27:34.949Z,4.85
2023-01-31T12:30:19.768Z,5.55
2023-01-31T12:33:05.096Z,4.15
2023-01-31T12:36:10.488Z,5.97
2023-01-31T12:39:08.622Z,5.15
2023-01-31T12:42:32.595Z,9.63
2023-01-31T12:45:21.422Z,5.93
2023-01-31T12:47:59.389Z,6.07
2023-01-31T12:51:04.323Z,5.20
2023-01-31T12:53:50.103Z,7.00
2023-01-31T12:56:31.298Z,8.63
2023-01-31T12:59:18.360Z,4.07
2023-01-31T13:02:08.914Z,7.18
2023-01-31T13:05:02.109Z,6.18
2023-01-31T13:07:40.290Z,6.50
2023-01-31T13:10:23.852Z,7.57
2023-01-31T13:12:51.533Z,8.18
2023-01-31T13:15:43.123Z,5.88
2023-01-31T13:18:12.611Z,6.40
2023-01-31T13:20:42.257Z,9.00
2023-01-31T13:23:17.246Z,7.03
2023-01-31T13:25:49.137Z,7.18
2023-01-31T13:28:21.783Z,9.70
2023-01-31T13:31:00.498Z,8.40
2023-01-31T13:33:47.552Z,5.47
2023-01-31T13:36:35.475Z,9.85
2023-01-31T13:39:08.792Z,12.18
2023-01-31T13:41:37.148Z,12.82
2023-01-31T13:44:04.101Z,12.98
2023-01-31T13:46:42.754Z,23.90
2023-01-31T13:49:25.383Z,8.85
2023-01-31T13:51:59.674Z,10.90
2023-01-31T13:54:37.440Z,12.20
2023-01-31T13:57:06.079Z,12.80
2023-01-31T13:59:35.977Z,9.50
2023-01-31T14:02:07.706Z,18.05
2023-01-31T14:04:40.367Z,11.32
2023-01-31T14:07:10.298Z,13.07
2023-01-31T14:09:42.770Z,12.93
2023-01-31T14:12:15.717Z,9.90
2023-01-31T14:14:51.469Z,57.55
2023-01-31T14:17:21.401Z,35.75
2023-01-31T14:19:49.311Z,11.02
2023-01-31T14:22:17.753Z,16.88
2023-01-31T14:24:50.753Z,14.65
2023-01-31T14:27:26.732Z,21.85
2023-01-31T14:29:57.782Z,69.97
2023-01-31T14:32:47.018Z,54.50
2023-01-31T14:35:14.262Z,39.15
2023-01-31T14:37:56.427Z,45.58
2023-01-31T14:40:34.205Z,72.38
2023-01-31T14:43:15.918Z,69.78
2023-01-31T14:45:57.764Z,41.33
2023-01-31T14:48:46.218Z,12.93
2023-01-31T14:51:38.664Z,21.33
2023-01-31T14:54:21.042Z,13.00
2023-01-31T14:56:57.219Z,17.38
2023-01-31T14:59:35.793Z,9.02
2023-01-31T15:02:32.133Z,7.95
2023-01-31T15:05:09.062Z,6.43
2023-01-31T15:07:36.099Z,6.68
2023-01-31T15:10:04.841Z,7.03
2023-01-31T15:12:55.181Z,10.50
2023-01-31T15:15:33.255Z,11.18
2023-01-31T15:18:04.148Z,8.52
2023-01-31T15:20:43.365Z,5.75
2023-01-31T15:23:21.654Z,10.55
2023-01-31T15:25:49.997Z,8.48
2023-01-31T15:28:30.180Z,5.00
2023-01-31T15:31:01.165Z,5.72
2023-01-31T15:33:43.551Z,6.55
2023-01-31T15:36:21.188Z,9.18
2023-01-31T15:39:03.478Z,9.52
2023-01-31T15:41:44.637Z,9.18
2023-01-31T15:44:21.536Z,8.93
2023-01-31T15:46:50.645Z,8.02
2023-01-31T15:49:40.504Z,9.35
2023-01-31T15:52:22.879Z,6.55
2023-01-31T15:54:56.398Z,5.72
2023-01-31T15:57:32.866Z,6.40
2023-01-31T15:59:59.845Z,5.90
2023-01-31T16:02:30.258Z,10.15
2023-01-31T16:04:57.756Z,9.68
2023-01-31T16:07:31.400Z,6.75
2023-01-31T16:10:01.986Z,5.22
2023-01-31T16:12:32.500Z,7.68
2023-01-31T16:15:05.014Z,7.10
2023-01-31T16:17:32.431Z,6.40
2023-01-31T16:19:59.358Z,7.78
2023-01-31T16:22:29.728Z,19.60
2023-01-31T16:24:59.174Z,7.95
2023-01-31T16:27:29.965Z,13.98
2023-01-31T16:29:59.435Z,9.15
2023-01-31T16:32:29.947Z,6.75
2023-01-31T16:35:02.394Z,8.85
2023-01-31T16:37:37.382Z,5.57
2023-01-31T16:40:45.150Z,6.85
2023-01-31T16:43:33.024Z,7.15
2023-01-31T16:46:03.197Z,6.70
2023-01-31T16:48:36.462Z,6.90
2023-01-31T16:51:25.733Z,6.82
2023-01-31T16:54:19.114Z,6.20
2023-01-31T16:57:01.977Z,7.88
2023-01-31T16:59:35.025Z,8.20
2023-01-31T17:02:09.125Z,10.15
2023-01-31T17:04:42.372Z,6.63
2023-01-31T17:07:14.848Z,9.85
2023-01-31T17:09:41.795Z,31.88
2023-01-31T17:12:19.609Z,33.22
2023-01-31T17:14:46.810Z,29.65
2023-01-31T17:17:20.540Z,21.52
2023-01-31T17:19:49.136Z,30.08
2023-01-31T17:22:16.276Z,36.03
2023-01-31T17:24:43.401Z,28.73
2023-01-31T17:27:15.201Z,22.85
2023-01-31T17:29:47.409Z,23.20
2023-01-31T17:32:16.345Z,40.05
2023-01-31T17:34:45.863Z,16.77
2023-01-31T17:37:16.062Z,15.73
2023-01-31T17:39:43.641Z,9.77
2023-01-31T17:42:18.079Z,12.25
2023-01-31T17:44:45.277Z,16.42
2023-01-31T17:47:12.636Z,34.92
2023-01-31T17:49:39.451Z,18.83
2023-01-31T17:52:06.308Z,22.63
2023-01-31T17:54:33.510Z,9.15
2023-01-31T17:57:00.334Z,10.18
2023-01-31T17:59:27.709Z,10.75
2023-01-31T18:01:55.355Z,10.18
2023-01-31T18:04:22.233Z,9.48
2023-01-31T18:06:49.084Z,7.38
2023-01-31T18:09:17.044Z,10.75
2023-01-31T18:11:44.554Z,9.10
2023-01-31T18:14:12.470Z,7.20
2023-01-31T18:16:39.412Z,6.90
2023-01-31T18:19:06.339Z,8.55
2023-01-31T18:21:34.295Z,8.13
2023-01-31T18:24:01.739Z,10.00
2023-01-31T18:26:29.160Z,10.00
2023-01-31T18:28:57.627Z,7.60
2023-01-31T18:31:24.749Z,8.55
2023-01-31T18:33:51.893Z,12.95
2023-01-31T18:36:20.820Z,6.00
2023-01-31T18:38:48.823Z,6.60
2023-01-31T18:41:19.648Z,4.95
2023-01-31T18:43:48.260Z,5.53
2023-01-31T18:46:17.286Z,6.35
2023-01-31T18:48:44.347Z,7.50
2023-01-31T18:51:12.817Z,7.85
2023-01-31T18:53:41.979Z,4.72
2023-01-31T18:56:13.120Z,6.25
2023-01-31T18:58:41.576Z,5.70
2023-01-31T19:01:16.688Z,7.05
2023-01-31T19:03:46.552Z,6.97
2023-01-31T19:06:18.575Z,6.00
2023-01-31T19:08:52.296Z,6.30
2023-01-31T19:11:20.938Z,7.45
2023-01-31T19:13:47.868Z,6.20
2023-01-31T19:16:20.686Z,7.75
2023-01-31T19:18:49.251Z,10.35
2023-01-31T19:21:22.127Z,7.40
2023-01-31T19:23:50.634Z,7.68
2023-01-31T19:26:18.297Z,10.07
2023-01-31T19:28:46.392Z,6.22
2023-01-31T19:31:19.401Z,7.43
2023-01-31T19:33:51.598Z,7.13
2023-01-31T19:36:29.386Z,6.65
2023-01-31T19:39:00.723Z,8.00
2023-01-31T19:41:29.056Z,8.77
2023-01-31T19:43:57.732Z,9.10
2023-01-31T19:46:27.879Z,10.00
2023-01-31T19:48:58.754Z,9.07
2023-01-31T19:51:26.813Z,7.53
2023-01-31T19:54:04.294Z,8.63
2023-01-31T19:56:31.942Z,9.07
2023-01-31T19:59:00.083Z,7.45
2023-01-31T20:01:27.200Z,12.07
2023-01-31T20:03:55.048Z,7.97
2023-01-31T20:06:25.716Z,10.52
2023-01-31T20:08:54.722Z,8.13
2023-01-31T20:11:21.984Z,8.95
2023-01-31T20:13:51.114Z,8.57
2023-01-31T20:16:18.941Z,11.25
2023-01-31T20:18:46.052Z,8.98
2023-01-31T20:21:18.406Z,7.35
2023-01-31T20:23:45.322Z,11.23
2023-01-31T20:26:13.470Z,8.57
2023-01-31T20:28:40.934Z,7.25
2023-01-31T20:31:10.219Z,6.82
2023-01-31T20:33:37.249Z,6.97
2023-01-31T20:36:05.078Z,8.48
2023-01-31T20:38:32.269Z,7.47
2023-01-31T20:40:59.115Z,6.45
2023-01-31T20:43:26.918Z,6.57
2023-01-31T20:46:01.027Z,5.75
2023-01-31T20:48:27.934Z,5.97
2023-01-31T20:50:56.604Z,9.68
2023-01-31T20:53:24.516Z,8.57
2023-01-31T20:55:56.855Z,6.45
2023-01-31T20:58:25.044Z,6.85
2023-01-31T21:00:53.584Z,8.43
2023-01-31T21:03:20.920Z,6.50
2023-01-31T21:05:47.996Z,8.75
2023-01-31T21:08:14.827Z,7.72
2023-01-31T21:10:41.726Z,8.43
2023-01-31T21:13:09.185Z,9.15
2023-01-31T21:15:36.208Z,7.30
2023-01-31T21:18:03.164Z,7.53
2023-01-31T21:20:30.058Z,7.53
2023-01-31T21:22:56.967Z,7.55
2023-01-31T21:25:24.028Z,8.10
2023-01-31T21:27:50.889Z,9.57
2023-01-31T21:30:18.181Z,7.07
2023-01-31T21:32:45.162Z,9.93
2023-01-31T21:35:12.262Z,6.40
2023-01-31T21:37:39.147Z,8.65
2023-01-31T21:40:07.285Z,6.82
2023-01-31T21:42:34.160Z,8.35
2023-01-31T21:45:00.987Z,9.95
2023-01-31T21:47:29.141Z,6.63
2023-01-31T21:49:55.927Z,9.27
2023-01-31T21:52:22.743Z,7.32
2023-01-31T21:54:49.577Z,10.07
2023-01-31T21:57:16.424Z,8.52
2023-01-31T21:59:45.515Z,9.68
2023-01-31T22:02:12.428Z,6.28
2023-01-31T22:04:39.337Z,9.82
2023-01-31T22:07:06.335Z,8.40
2023-01-31T22:09:33.613Z,8.50
2023-01-31T22:12:00.449Z,9.95
2023-01-31T22:14:27.316Z,7.63
2023-01-31T22:16:55.147Z,6.80
2023-01-31T22:19:22.039Z,9.65
2023-01-31T22:21:48.900Z,6.25
2023-01-31T22:24:17.119Z,9.25
2023-01-31T22:26:44.675Z,7.88
2023-01-31T22:29:15.779Z,10.23
2023-01-31T22:31:44.244Z,8.30
2023-01-31T22:34:15.634Z,6.13
2023-01-31T22:36:42.609Z,6.30
2023-01-31T22:39:13.132Z,7.75
2023-01-31T22:41:40.108Z,6.65
2023-01-31T22:44:07.065Z,9.13
2023-01-31T22:46:34.027Z,7.18
2023-01-31T22:49:01.002Z,5.15
2023-01-31T22:51:29.008Z,4.90
2023-01-31T22:53:57.945Z,5.10
2023-01-31T22:56:30.202Z,4.13
2023-01-31T22:58:58.700Z,3.28
2023-01-31T23:01:31.580Z,3.25
2023-01-31T23:04:00.977Z,2.78
2023-01-31T23:06:28.667Z,3.17
2023-01-31T23:08:56.732Z,3.80
2023-01-31T23:11:24.440Z,3.05
2023-01-31T23:13:51.602Z,3.60
2023-01-31T23:16:21.579Z,2.30
2023-01-31T23:18:48.396Z,2.55
2023-01-31T23:21:17.694Z,2.72
2023-01-31T23:23:45.564Z,2.25
2023-01-31T23:26:13.443Z,3.13
2023-01-31T23:28:40.744Z,3.25
2023-01-31T23:31:08.279Z,3.00
2023-01-31T23:33:35.195Z,2.65
2023-01-31T23:36:02.670Z,3.40
2023-01-31T23:38:29.539Z,3.35
2023-01-31T23:40:56.375Z,2.75
2023-01-31T23:43:23.413Z,3.55
2023-01-31T23:45:50.626Z,3.22
2023-01-31T23:48:17.852Z,3.03
2023-01-31T23:50:44.684Z,2.20
2023-01-31T23:53:11.500Z,3.53
2023-01-31T23:55:38.378Z,2.80
2023-01-31T23:58:05.726Z,3.75
